sensor_id;sensor_type;location;lat;lon;timestamp;P1;durP1;ratioP1;P2;durP2;ratioP2
55172;SDS011;41061;52.822;6.860;2023-02-15T00:01:34;38.30;;;19.05;;
55172;SDS011;41061;52.822;6.860;2023-02-15T00:04:01;32.58;;;18.63;;
55172;SDS011;41061;52.822;6.860;2023-02-15T00:06:27;49.20;;;25.38;;
55172;SDS011;41061;52.822;6.860;2023-02-15T00:08:53;43.08;;;24.42;;
55172;SDS011;41061;52.822;6.860;2023-02-15T00:11:19;48.20;;;25.95;;
55172;SDS011;41061;52.822;6.860;2023-02-15T00:14:09;43.13;;;24.17;;
55172;SDS011;41061;52.822;6.860;2023-02-15T00:16:40;41.83;;;24.02;;
55172;SDS011;41061;52.822;6.860;2023-02-15T00:19:08;37.90;;;22.48;;
55172;SDS011;41061;52.822;6.860;2023-02-15T00:21:34;32.83;;;21.05;;
55172;SDS011;41061;52.822;6.860;2023-02-15T00:24:01;58.50;;;28.83;;
55172;SDS011;41061;52.822;6.860;2023-02-15T00:26:29;46.65;;;27.05;;
55172;SDS011;41061;52.822;6.860;2023-02-15T00:28:56;39.17;;;24.35;;
55172;SDS011;41061;52.822;6.860;2023-02-15T00:31:26;44.85;;;25.60;;
55172;SDS011;41061;52.822;6.860;2023-02-15T00:33:52;47.72;;;27.50;;
55172;SDS011;41061;52.822;6.860;2023-02-15T00:36:18;45.53;;;26.75;;
55172;SDS011;41061;52.822;6.860;2023-02-15T00:38:44;46.00;;;26.90;;
55172;SDS011;41061;52.822;6.860;2023-02-15T00:41:10;45.45;;;27.60;;
55172;SDS011;41061;52.822;6.860;2023-02-15T00:43:36;56.20;;;31.98;;
55172;SDS011;41061;52.822;6.860;2023-02-15T00:46:02;56.45;;;31.55;;
55172;SDS011;41061;52.822;6.860;2023-02-15T00:48:29;54.70;;;30.55;;
55172;SDS011;41061;52.822;6.860;2023-02-15T00:50:56;62.67;;;33.38;;
55172;SDS011;41061;52.822;6.860;2023-02-15T00:53:24;59.42;;;31.67;;
55172;SDS011;41061;52.822;6.860;2023-02-15T00:55:50;56.97;;;33.22;;
55172;SDS011;41061;52.822;6.860;2023-02-15T00:58:16;59.17;;;31.20;;
55172;SDS011;41061;52.822;6.860;2023-02-15T01:00:44;49.63;;;29.08;;
55172;SDS011;41061;52.822;6.860;2023-02-15T01:03:11;45.15;;;27.48;;
55172;SDS011;41061;52.822;6.860;2023-02-15T01:05:37;56.42;;;30.27;;
55172;SDS011;41061;52.822;6.860;2023-02-15T01:08:03;46.70;;;28.15;;
55172;SDS011;41061;52.822;6.860;2023-02-15T01:10:29;45.42;;;26.95;;
55172;SDS011;41061;52.822;6.860;2023-02-15T01:12:55;43.47;;;25.88;;
55172;SDS011;41061;52.822;6.860;2023-02-15T01:15:21;38.22;;;24.00;;
55172;SDS011;41061;52.822;6.860;2023-02-15T01:17:48;36.22;;;22.67;;
55172;SDS011;41061;52.822;6.860;2023-02-15T01:20:19;42.25;;;23.55;;
55172;SDS011;41061;52.822;6.860;2023-02-15T01:22:46;40.30;;;23.70;;
55172;SDS011;41061;52.822;6.860;2023-02-15T01:25:12;41.60;;;24.15;;
55172;SDS011;41061;52.822;6.860;2023-02-15T01:27:37;56.80;;;30.98;;
55172;SDS011;41061;52.822;6.860;2023-02-15T01:30:03;45.42;;;26.17;;
55172;SDS011;41061;52.822;6.860;2023-02-15T01:32:29;46.33;;;26.90;;
55172;SDS011;41061;52.822;6.860;2023-02-15T01:34:56;40.35;;;24.50;;
55172;SDS011;41061;52.822;6.860;2023-02-15T01:37:22;43.08;;;24.27;;
55172;SDS011;41061;52.822;6.860;2023-02-15T01:39:47;41.80;;;24.48;;
55172;SDS011;41061;52.822;6.860;2023-02-15T01:42:13;40.85;;;24.10;;
55172;SDS011;41061;52.822;6.860;2023-02-15T01:49:48;46.80;;;29.27;;
55172;SDS011;41061;52.822;6.860;2023-02-15T01:52:22;46.85;;;28.63;;
55172;SDS011;41061;52.822;6.860;2023-02-15T01:54:48;52.95;;;30.30;;
55172;SDS011;41061;52.822;6.860;2023-02-15T01:57:16;55.72;;;32.80;;
55172;SDS011;41061;52.822;6.860;2023-02-15T01:59:45;183.68;;;38.75;;
55172;SDS011;41061;52.822;6.860;2023-02-15T02:02:15;61.45;;;34.47;;
55172;SDS011;41061;52.822;6.860;2023-02-15T02:04:49;51.65;;;31.02;;
55172;SDS011;41061;52.822;6.860;2023-02-15T02:07:17;51.28;;;28.42;;
55172;SDS011;41061;52.822;6.860;2023-02-15T02:09:45;37.88;;;26.45;;
55172;SDS011;41061;52.822;6.860;2023-02-15T02:12:12;43.30;;;25.70;;
55172;SDS011;41061;52.822;6.860;2023-02-15T02:14:38;32.72;;;23.42;;
55172;SDS011;41061;52.822;6.860;2023-02-15T02:23:06;36.60;;;25.38;;
55172;SDS011;41061;52.822;6.860;2023-02-15T02:28:20;47.30;;;29.63;;
55172;SDS011;41061;52.822;6.860;2023-02-15T02:36:28;253.52;;;40.58;;
55172;SDS011;41061;52.822;6.860;2023-02-15T02:39:22;104.57;;;37.35;;
55172;SDS011;41061;52.822;6.860;2023-02-15T02:44:35;77.57;;;37.90;;
55172;SDS011;41061;52.822;6.860;2023-02-15T02:49:35;52.00;;;31.95;;
55172;SDS011;41061;52.822;6.860;2023-02-15T02:52:31;49.15;;;31.17;;
55172;SDS011;41061;52.822;6.860;2023-02-15T02:54:57;57.67;;;33.38;;
55172;SDS011;41061;52.822;6.860;2023-02-15T02:57:25;59.80;;;32.70;;
55172;SDS011;41061;52.822;6.860;2023-02-15T02:59:53;54.97;;;33.90;;
55172;SDS011;41061;52.822;6.860;2023-02-15T03:02:23;56.22;;;32.08;;
55172;SDS011;41061;52.822;6.860;2023-02-15T03:04:55;56.10;;;31.70;;
55172;SDS011;41061;52.822;6.860;2023-02-15T03:07:28;50.53;;;31.27;;
55172;SDS011;41061;52.822;6.860;2023-02-15T03:09:57;53.42;;;31.95;;
55172;SDS011;41061;52.822;6.860;2023-02-15T03:12:29;68.75;;;35.95;;
55172;SDS011;41061;52.822;6.860;2023-02-15T03:15:01;125.30;;;40.38;;
55172;SDS011;41061;52.822;6.860;2023-02-15T03:17:32;114.50;;;38.65;;
55172;SDS011;41061;52.822;6.860;2023-02-15T03:20:02;88.05;;;38.55;;
55172;SDS011;41061;52.822;6.860;2023-02-15T03:23:18;99.88;;;34.30;;
55172;SDS011;41061;52.822;6.860;2023-02-15T03:25:21;376.58;;;40.75;;
55172;SDS011;41061;52.822;6.860;2023-02-15T03:27:52;545.05;;;49.85;;
55172;SDS011;41061;52.822;6.860;2023-02-15T03:30:20;409.42;;;43.85;;
55172;SDS011;41061;52.822;6.860;2023-02-15T03:32:48;227.50;;;41.75;;
55172;SDS011;41061;52.822;6.860;2023-02-15T03:35:15;75.20;;;36.55;;
55172;SDS011;41061;52.822;6.860;2023-02-15T03:43:18;70.53;;;36.60;;
55172;SDS011;41061;52.822;6.860;2023-02-15T03:45:58;73.63;;;38.88;;
55172;SDS011;41061;52.822;6.860;2023-02-15T03:48:32;73.40;;;38.28;;
55172;SDS011;41061;52.822;6.860;2023-02-15T03:51:02;67.72;;;37.53;;
55172;SDS011;41061;52.822;6.860;2023-02-15T03:53:50;79.90;;;38.17;;
55172;SDS011;41061;52.822;6.860;2023-02-15T03:56:19;81.57;;;35.55;;
55172;SDS011;41061;52.822;6.860;2023-02-15T03:58:45;104.40;;;39.05;;
55172;SDS011;41061;52.822;6.860;2023-02-15T04:01:39;65.93;;;35.08;;
55172;SDS011;41061;52.822;6.860;2023-02-15T04:04:31;229.13;;;38.67;;
55172;SDS011;41061;52.822;6.860;2023-02-15T04:07:02;73.32;;;36.35;;
55172;SDS011;41061;52.822;6.860;2023-02-15T04:09:29;55.30;;;34.65;;
55172;SDS011;41061;52.822;6.860;2023-02-15T04:12:14;74.55;;;36.88;;
55172;SDS011;41061;52.822;6.860;2023-02-15T04:14:40;58.78;;;34.10;;
55172;SDS011;41061;52.822;6.860;2023-02-15T04:17:24;57.03;;;34.85;;
55172;SDS011;41061;52.822;6.860;2023-02-15T04:19:50;60.97;;;34.40;;
55172;SDS011;41061;52.822;6.860;2023-02-15T04:22:34;56.63;;;33.13;;
55172;SDS011;41061;52.822;6.860;2023-02-15T04:25:18;64.15;;;33.47;;
55172;SDS011;41061;52.822;6.860;2023-02-15T04:27:51;52.70;;;33.15;;
55172;SDS011;41061;52.822;6.860;2023-02-15T04:30:19;53.05;;;31.80;;
55172;SDS011;41061;52.822;6.860;2023-02-15T04:32:47;64.18;;;33.63;;
55172;SDS011;41061;52.822;6.860;2023-02-15T04:35:13;56.05;;;33.55;;
55172;SDS011;41061;52.822;6.860;2023-02-15T04:37:40;64.00;;;36.70;;
55172;SDS011;41061;52.822;6.860;2023-02-15T04:40:07;63.97;;;36.22;;
55172;SDS011;41061;52.822;6.860;2023-02-15T04:42:35;72.93;;;40.00;;
55172;SDS011;41061;52.822;6.860;2023-02-15T04:45:01;77.97;;;40.05;;
55172;SDS011;41061;52.822;6.860;2023-02-15T04:47:27;85.22;;;41.65;;
55172;SDS011;41061;52.822;6.860;2023-02-15T04:49:53;98.60;;;43.72;;
55172;SDS011;41061;52.822;6.860;2023-02-15T04:52:18;77.00;;;41.50;;
55172;SDS011;41061;52.822;6.860;2023-02-15T04:54:45;95.38;;;45.10;;
55172;SDS011;41061;52.822;6.860;2023-02-15T04:57:11;109.97;;;46.35;;
55172;SDS011;41061;52.822;6.860;2023-02-15T04:59:37;89.38;;;42.55;;
55172;SDS011;41061;52.822;6.860;2023-02-15T05:02:02;96.47;;;44.58;;
55172;SDS011;41061;52.822;6.860;2023-02-15T05:04:28;91.30;;;43.78;;
55172;SDS011;41061;52.822;6.860;2023-02-15T05:06:54;92.35;;;44.42;;
55172;SDS011;41061;52.822;6.860;2023-02-15T05:09:20;94.13;;;42.30;;
55172;SDS011;41061;52.822;6.860;2023-02-15T05:11:45;91.88;;;41.20;;
55172;SDS011;41061;52.822;6.860;2023-02-15T05:14:11;77.80;;;38.97;;
55172;SDS011;41061;52.822;6.860;2023-02-15T05:16:37;77.53;;;37.90;;
55172;SDS011;41061;52.822;6.860;2023-02-15T05:19:03;79.03;;;38.45;;
55172;SDS011;41061;52.822;6.860;2023-02-15T05:21:29;72.75;;;37.97;;
55172;SDS011;41061;52.822;6.860;2023-02-15T05:23:55;73.28;;;36.40;;
55172;SDS011;41061;52.822;6.860;2023-02-15T05:26:21;71.18;;;36.25;;
55172;SDS011;41061;52.822;6.860;2023-02-15T05:29:07;62.30;;;34.10;;
55172;SDS011;41061;52.822;6.860;2023-02-15T05:31:33;74.32;;;36.05;;
55172;SDS011;41061;52.822;6.860;2023-02-15T05:33:59;74.70;;;36.25;;
55172;SDS011;41061;52.822;6.860;2023-02-15T05:36:25;77.93;;;36.65;;
55172;SDS011;41061;52.822;6.860;2023-02-15T05:38:51;84.85;;;38.15;;
55172;SDS011;41061;52.822;6.860;2023-02-15T05:41:17;82.47;;;39.42;;
55172;SDS011;41061;52.822;6.860;2023-02-15T05:43:42;75.80;;;38.17;;
55172;SDS011;41061;52.822;6.860;2023-02-15T05:46:08;83.63;;;38.47;;
55172;SDS011;41061;52.822;6.860;2023-02-15T05:48:35;73.03;;;36.20;;
55172;SDS011;41061;52.822;6.860;2023-02-15T05:53:32;71.28;;;35.25;;
55172;SDS011;41061;52.822;6.860;2023-02-15T05:55:59;72.03;;;35.63;;
55172;SDS011;41061;52.822;6.860;2023-02-15T05:58:28;62.72;;;33.85;;
55172;SDS011;41061;52.822;6.860;2023-02-15T06:00:56;69.32;;;33.10;;
55172;SDS011;41061;52.822;6.860;2023-02-15T06:03:22;70.40;;;34.60;;
55172;SDS011;41061;52.822;6.860;2023-02-15T06:05:48;65.93;;;33.22;;
55172;SDS011;41061;52.822;6.860;2023-02-15T06:08:17;58.97;;;32.33;;
55172;SDS011;41061;52.822;6.860;2023-02-15T06:10:46;57.20;;;30.75;;
55172;SDS011;41061;52.822;6.860;2023-02-15T06:13:12;59.03;;;30.83;;
55172;SDS011;41061;52.822;6.860;2023-02-15T06:15:38;51.03;;;30.08;;
55172;SDS011;41061;52.822;6.860;2023-02-15T06:18:04;57.35;;;29.67;;
55172;SDS011;41061;52.822;6.860;2023-02-15T06:20:30;53.67;;;28.70;;
55172;SDS011;41061;52.822;6.860;2023-02-15T06:22:56;54.47;;;29.73;;
55172;SDS011;41061;52.822;6.860;2023-02-15T06:25:21;49.10;;;28.45;;
55172;SDS011;41061;52.822;6.860;2023-02-15T06:27:47;50.95;;;28.67;;
55172;SDS011;41061;52.822;6.860;2023-02-15T06:30:14;50.08;;;29.77;;
55172;SDS011;41061;52.822;6.860;2023-02-15T06:32:40;51.38;;;29.27;;
55172;SDS011;41061;52.822;6.860;2023-02-15T06:35:06;52.78;;;29.23;;
55172;SDS011;41061;52.822;6.860;2023-02-15T06:37:32;62.00;;;32.05;;
55172;SDS011;41061;52.822;6.860;2023-02-15T06:39:57;64.75;;;33.25;;
55172;SDS011;41061;52.822;6.860;2023-02-15T06:42:24;68.55;;;34.15;;
55172;SDS011;41061;52.822;6.860;2023-02-15T06:44:50;65.35;;;32.90;;
55172;SDS011;41061;52.822;6.860;2023-02-15T06:47:16;65.05;;;33.20;;
55172;SDS011;41061;52.822;6.860;2023-02-15T06:49:42;74.22;;;33.25;;
55172;SDS011;41061;52.822;6.860;2023-02-15T06:52:07;66.45;;;33.75;;
55172;SDS011;41061;52.822;6.860;2023-02-15T06:54:33;63.50;;;30.98;;
55172;SDS011;41061;52.822;6.860;2023-02-15T06:56:59;51.03;;;28.63;;
55172;SDS011;41061;52.822;6.860;2023-02-15T06:59:25;46.80;;;27.38;;
55172;SDS011;41061;52.822;6.860;2023-02-15T07:01:50;49.90;;;27.85;;
55172;SDS011;41061;52.822;6.860;2023-02-15T07:04:16;58.13;;;28.90;;
55172;SDS011;41061;52.822;6.860;2023-02-15T07:06:42;62.03;;;31.17;;
55172;SDS011;41061;52.822;6.860;2023-02-15T07:09:08;55.70;;;29.42;;
55172;SDS011;41061;52.822;6.860;2023-02-15T07:11:34;65.40;;;31.38;;
55172;SDS011;41061;52.822;6.860;2023-02-15T07:14:18;71.10;;;33.15;;
55172;SDS011;41061;52.822;6.860;2023-02-15T07:16:44;68.38;;;33.03;;
55172;SDS011;41061;52.822;6.860;2023-02-15T07:19:10;66.90;;;32.00;;
55172;SDS011;41061;52.822;6.860;2023-02-15T07:21:35;71.88;;;33.25;;
55172;SDS011;41061;52.822;6.860;2023-02-15T07:24:01;67.20;;;32.78;;
55172;SDS011;41061;52.822;6.860;2023-02-15T07:26:27;70.45;;;32.67;;
55172;SDS011;41061;52.822;6.860;2023-02-15T07:28:53;68.18;;;30.65;;
55172;SDS011;41061;52.822;6.860;2023-02-15T07:31:18;60.75;;;30.88;;
55172;SDS011;41061;52.822;6.860;2023-02-15T07:33:44;64.85;;;32.17;;
55172;SDS011;41061;52.822;6.860;2023-02-15T07:36:10;63.38;;;30.88;;
55172;SDS011;41061;52.822;6.860;2023-02-15T07:38:37;61.55;;;31.83;;
55172;SDS011;41061;52.822;6.860;2023-02-15T07:41:14;65.22;;;31.65;;
55172;SDS011;41061;52.822;6.860;2023-02-15T07:43:41;64.05;;;31.88;;
55172;SDS011;41061;52.822;6.860;2023-02-15T07:46:09;63.92;;;30.63;;
55172;SDS011;41061;52.822;6.860;2023-02-15T07:48:40;66.68;;;32.05;;
55172;SDS011;41061;52.822;6.860;2023-02-15T07:51:08;57.25;;;29.67;;
55172;SDS011;41061;52.822;6.860;2023-02-15T07:53:35;63.13;;;30.60;;
55172;SDS011;41061;52.822;6.860;2023-02-15T07:56:03;63.10;;;31.67;;
55172;SDS011;41061;52.822;6.860;2023-02-15T07:58:31;58.65;;;31.65;;
55172;SDS011;41061;52.822;6.860;2023-02-15T08:01:16;64.95;;;32.00;;
55172;SDS011;41061;52.822;6.860;2023-02-15T08:03:43;66.90;;;31.95;;
55172;SDS011;41061;52.822;6.860;2023-02-15T08:06:08;60.47;;;32.00;;
55172;SDS011;41061;52.822;6.860;2023-02-15T08:08:36;59.35;;;31.85;;
55172;SDS011;41061;52.822;6.860;2023-02-15T08:11:21;64.07;;;30.80;;
55172;SDS011;41061;52.822;6.860;2023-02-15T08:14:12;63.35;;;31.27;;
55172;SDS011;41061;52.822;6.860;2023-02-15T08:16:50;59.00;;;31.83;;
55172;SDS011;41061;52.822;6.860;2023-02-15T08:19:22;61.55;;;31.95;;
55172;SDS011;41061;52.822;6.860;2023-02-15T08:21:56;56.47;;;32.33;;
55172;SDS011;41061;52.822;6.860;2023-02-15T08:24:24;67.63;;;33.13;;
55172;SDS011;41061;52.822;6.860;2023-02-15T08:26:54;64.97;;;30.65;;
55172;SDS011;41061;52.822;6.860;2023-02-15T08:29:21;62.75;;;32.95;;
55172;SDS011;41061;52.822;6.860;2023-02-15T08:31:49;70.55;;;33.25;;
55172;SDS011;41061;52.822;6.860;2023-02-15T08:34:18;57.75;;;31.88;;
55172;SDS011;41061;52.822;6.860;2023-02-15T08:36:44;63.63;;;31.40;;
55172;SDS011;41061;52.822;6.860;2023-02-15T08:39:13;58.90;;;30.77;;
55172;SDS011;41061;52.822;6.860;2023-02-15T08:41:41;57.30;;;31.27;;
55172;SDS011;41061;52.822;6.860;2023-02-15T08:44:09;61.80;;;30.45;;
55172;SDS011;41061;52.822;6.860;2023-02-15T08:46:37;58.80;;;30.80;;
55172;SDS011;41061;52.822;6.860;2023-02-15T08:49:04;54.15;;;29.63;;
55172;SDS011;41061;52.822;6.860;2023-02-15T08:51:32;57.28;;;31.13;;
55172;SDS011;41061;52.822;6.860;2023-02-15T08:54:00;54.92;;;30.50;;
55172;SDS011;41061;52.822;6.860;2023-02-15T08:56:30;50.40;;;29.65;;
55172;SDS011;41061;52.822;6.860;2023-02-15T08:58:59;50.80;;;29.67;;
55172;SDS011;41061;52.822;6.860;2023-02-15T09:01:25;55.30;;;30.25;;
55172;SDS011;41061;52.822;6.860;2023-02-15T09:03:57;56.42;;;30.83;;
55172;SDS011;41061;52.822;6.860;2023-02-15T09:06:27;52.15;;;30.20;;
55172;SDS011;41061;52.822;6.860;2023-02-15T09:08:54;53.00;;;30.08;;
55172;SDS011;41061;52.822;6.860;2023-02-15T09:11:21;49.53;;;29.13;;
55172;SDS011;41061;52.822;6.860;2023-02-15T09:13:55;55.13;;;30.40;;
55172;SDS011;41061;52.822;6.860;2023-02-15T09:16:24;58.38;;;31.17;;
55172;SDS011;41061;52.822;6.860;2023-02-15T09:18:51;53.88;;;30.80;;
55172;SDS011;41061;52.822;6.860;2023-02-15T09:21:19;54.38;;;29.85;;
55172;SDS011;41061;52.822;6.860;2023-02-15T09:23:47;51.38;;;29.00;;
55172;SDS011;41061;52.822;6.860;2023-02-15T09:26:15;55.22;;;30.67;;
55172;SDS011;41061;52.822;6.860;2023-02-15T09:28:43;56.88;;;32.00;;
55172;SDS011;41061;52.822;6.860;2023-02-15T09:33:36;54.70;;;30.05;;
55172;SDS011;41061;52.822;6.860;2023-02-15T09:36:04;51.83;;;30.33;;
55172;SDS011;41061;52.822;6.860;2023-02-15T09:38:31;50.58;;;28.83;;
55172;SDS011;41061;52.822;6.860;2023-02-15T10:00:20;55.60;;;30.48;;
55172;SDS011;41061;52.822;6.860;2023-02-15T10:08:58;51.05;;;30.85;;
55172;SDS011;41061;52.822;6.860;2023-02-15T10:11:44;55.78;;;31.50;;
55172;SDS011;41061;52.822;6.860;2023-02-15T10:17:15;53.17;;;30.60;;
55172;SDS011;41061;52.822;6.860;2023-02-15T10:25:42;51.72;;;31.40;;
55172;SDS011;41061;52.822;6.860;2023-02-15T10:28:20;54.03;;;30.60;;
55172;SDS011;41061;52.822;6.860;2023-02-15T10:30:52;48.58;;;29.92;;
55172;SDS011;41061;52.822;6.860;2023-02-15T10:55:34;51.38;;;32.28;;
55172;SDS011;41061;52.822;6.860;2023-02-15T11:03:25;54.47;;;31.70;;
55172;SDS011;41061;52.822;6.860;2023-02-15T11:08:24;53.38;;;31.42;;
55172;SDS011;41061;52.822;6.860;2023-02-15T11:11:04;48.40;;;30.65;;
55172;SDS011;41061;52.822;6.860;2023-02-15T11:13:36;53.05;;;32.05;;
55172;SDS011;41061;52.822;6.860;2023-02-15T11:16:14;49.47;;;32.42;;
55172;SDS011;41061;52.822;6.860;2023-02-15T11:18:55;50.30;;;32.03;;
55172;SDS011;41061;52.822;6.860;2023-02-15T11:21:31;51.08;;;31.58;;
55172;SDS011;41061;52.822;6.860;2023-02-15T11:24:14;51.22;;;30.95;;
55172;SDS011;41061;52.822;6.860;2023-02-15T11:27:04;53.13;;;32.08;;
55172;SDS011;41061;52.822;6.860;2023-02-15T11:29:50;54.38;;;32.30;;
55172;SDS011;41061;52.822;6.860;2023-02-15T11:32:31;51.15;;;32.03;;
55172;SDS011;41061;52.822;6.860;2023-02-15T11:35:17;46.10;;;30.27;;
55172;SDS011;41061;52.822;6.860;2023-02-15T11:40:54;52.28;;;32.63;;
55172;SDS011;41061;52.822;6.860;2023-02-15T11:46:04;48.70;;;32.17;;
55172;SDS011;41061;52.822;6.860;2023-02-15T11:48:32;53.67;;;33.67;;
55172;SDS011;41061;52.822;6.860;2023-02-15T11:50:59;50.13;;;32.42;;
55172;SDS011;41061;52.822;6.860;2023-02-15T11:53:27;52.70;;;33.00;;
55172;SDS011;41061;52.822;6.860;2023-02-15T11:55:56;52.60;;;32.85;;
55172;SDS011;41061;52.822;6.860;2023-02-15T11:58:25;50.10;;;31.58;;
55172;SDS011;41061;52.822;6.860;2023-02-15T12:04:06;51.58;;;31.10;;
55172;SDS011;41061;52.822;6.860;2023-02-15T12:06:34;57.70;;;31.23;;
55172;SDS011;41061;52.822;6.860;2023-02-15T12:11:33;52.17;;;31.67;;
55172;SDS011;41061;52.822;6.860;2023-02-15T12:14:03;50.83;;;30.90;;
55172;SDS011;41061;52.822;6.860;2023-02-15T12:16:32;47.60;;;30.40;;
55172;SDS011;41061;52.822;6.860;2023-02-15T12:24:51;42.63;;;28.63;;
55172;SDS011;41061;52.822;6.860;2023-02-15T12:27:29;48.47;;;30.45;;
55172;SDS011;41061;52.822;6.860;2023-02-15T12:30:01;51.15;;;31.13;;
55172;SDS011;41061;52.822;6.860;2023-02-15T12:32:36;48.20;;;31.00;;
55172;SDS011;41061;52.822;6.860;2023-02-15T12:35:24;41.38;;;26.92;;
55172;SDS011;41061;52.822;6.860;2023-02-15T12:37:54;49.42;;;30.13;;
55172;SDS011;41061;52.822;6.860;2023-02-15T12:40:27;50.65;;;28.92;;
55172;SDS011;41061;52.822;6.860;2023-02-15T12:42:54;48.35;;;28.35;;
55172;SDS011;41061;52.822;6.860;2023-02-15T12:45:29;49.17;;;28.38;;
55172;SDS011;41061;52.822;6.860;2023-02-15T12:50:41;45.80;;;27.92;;
55172;SDS011;41061;52.822;6.860;2023-02-15T12:53:14;48.72;;;27.98;;
55172;SDS011;41061;52.822;6.860;2023-02-15T12:55:56;46.40;;;28.00;;
55172;SDS011;41061;52.822;6.860;2023-02-15T12:58:24;46.95;;;27.75;;
55172;SDS011;41061;52.822;6.860;2023-02-15T13:01:11;44.15;;;27.42;;
55172;SDS011;41061;52.822;6.860;2023-02-15T13:06:24;45.40;;;28.13;;
55172;SDS011;41061;52.822;6.860;2023-02-15T13:08:51;41.20;;;25.95;;
55172;SDS011;41061;52.822;6.860;2023-02-15T13:11:25;43.45;;;27.42;;
55172;SDS011;41061;52.822;6.860;2023-02-15T13:14:03;48.13;;;26.48;;
55172;SDS011;41061;52.822;6.860;2023-02-15T13:16:44;44.15;;;27.13;;
55172;SDS011;41061;52.822;6.860;2023-02-15T13:19:18;45.75;;;26.80;;
55172;SDS011;41061;52.822;6.860;2023-02-15T13:21:51;50.80;;;27.45;;
55172;SDS011;41061;52.822;6.860;2023-02-15T13:24:26;48.42;;;27.13;;
55172;SDS011;41061;52.822;6.860;2023-02-15T13:26:55;43.08;;;26.05;;
55172;SDS011;41061;52.822;6.860;2023-02-15T13:29:26;42.90;;;26.30;;
55172;SDS011;41061;52.822;6.860;2023-02-15T13:31:54;47.47;;;27.15;;
55172;SDS011;41061;52.822;6.860;2023-02-15T13:34:24;42.17;;;26.08;;
55172;SDS011;41061;52.822;6.860;2023-02-15T13:53:37;44.42;;;25.38;;
55172;SDS011;41061;52.822;6.860;2023-02-15T14:01:52;42.88;;;25.23;;
55172;SDS011;41061;52.822;6.860;2023-02-15T14:21:57;40.85;;;24.52;;
55172;SDS011;41061;52.822;6.860;2023-02-15T14:24:36;46.03;;;25.77;;
55172;SDS011;41061;52.822;6.860;2023-02-15T14:27:13;43.42;;;25.60;;
55172;SDS011;41061;52.822;6.860;2023-02-15T14:32:18;42.95;;;24.30;;
55172;SDS011;41061;52.822;6.860;2023-02-15T14:34:59;40.55;;;24.30;;
55172;SDS011;41061;52.822;6.860;2023-02-15T14:40:29;46.63;;;24.33;;
55172;SDS011;41061;52.822;6.860;2023-02-15T14:46:36;41.83;;;23.65;;
55172;SDS011;41061;52.822;6.860;2023-02-15T14:49:10;43.10;;;24.52;;
55172;SDS011;41061;52.822;6.860;2023-02-15T14:56:47;45.00;;;25.23;;
55172;SDS011;41061;52.822;6.860;2023-02-15T15:07:56;41.90;;;24.30;;
55172;SDS011;41061;52.822;6.860;2023-02-15T15:10:35;40.25;;;23.85;;
55172;SDS011;41061;52.822;6.860;2023-02-15T15:19:01;42.92;;;25.00;;
55172;SDS011;41061;52.822;6.860;2023-02-15T15:32:44;41.60;;;24.58;;
55172;SDS011;41061;52.822;6.860;2023-02-15T15:35:28;45.10;;;24.30;;
55172;SDS011;41061;52.822;6.860;2023-02-15T15:43:42;41.13;;;24.35;;
55172;SDS011;41061;52.822;6.860;2023-02-15T15:49:17;43.25;;;24.48;;
55172;SDS011;41061;52.822;6.860;2023-02-15T15:51:46;45.47;;;24.13;;
55172;SDS011;41061;52.822;6.860;2023-02-15T15:54:20;38.63;;;23.52;;
55172;SDS011;41061;52.822;6.860;2023-02-15T15:56:58;39.03;;;23.13;;
55172;SDS011;41061;52.822;6.860;2023-02-15T15:59:31;44.47;;;23.33;;
55172;SDS011;41061;52.822;6.860;2023-02-15T16:02:06;43.13;;;22.83;;
55172;SDS011;41061;52.822;6.860;2023-02-15T16:04:35;40.70;;;23.48;;
55172;SDS011;41061;52.822;6.860;2023-02-15T16:07:16;40.10;;;24.25;;
55172;SDS011;41061;52.822;6.860;2023-02-15T16:10:02;44.00;;;25.10;;
55172;SDS011;41061;52.822;6.860;2023-02-15T16:12:31;44.88;;;23.40;;
55172;SDS011;41061;52.822;6.860;2023-02-15T16:15:02;41.70;;;24.00;;
55172;SDS011;41061;52.822;6.860;2023-02-15T16:17:38;42.38;;;23.17;;
55172;SDS011;41061;52.822;6.860;2023-02-15T16:20:17;41.25;;;23.40;;
55172;SDS011;41061;52.822;6.860;2023-02-15T16:22:45;49.13;;;24.40;;
55172;SDS011;41061;52.822;6.860;2023-02-15T16:28:12;42.58;;;24.10;;
55172;SDS011;41061;52.822;6.860;2023-02-15T16:30:39;43.50;;;23.90;;
55172;SDS011;41061;52.822;6.860;2023-02-15T16:33:15;41.80;;;23.25;;
55172;SDS011;41061;52.822;6.860;2023-02-15T16:35:54;43.42;;;23.50;;
55172;SDS011;41061;52.822;6.860;2023-02-15T16:38:24;47.22;;;23.60;;
55172;SDS011;41061;52.822;6.860;2023-02-15T16:40:53;44.95;;;22.50;;
55172;SDS011;41061;52.822;6.860;2023-02-15T16:43:24;44.88;;;24.58;;
55172;SDS011;41061;52.822;6.860;2023-02-15T16:45:51;43.08;;;23.20;;
55172;SDS011;41061;52.822;6.860;2023-02-15T16:48:20;44.15;;;23.90;;
55172;SDS011;41061;52.822;6.860;2023-02-15T16:50:48;43.55;;;25.27;;
55172;SDS011;41061;52.822;6.860;2023-02-15T16:53:17;41.15;;;23.95;;
55172;SDS011;41061;52.822;6.860;2023-02-15T16:55:44;44.28;;;23.65;;
55172;SDS011;41061;52.822;6.860;2023-02-15T16:58:14;48.63;;;24.20;;
55172;SDS011;41061;52.822;6.860;2023-02-15T17:00:41;43.22;;;23.17;;
55172;SDS011;41061;52.822;6.860;2023-02-15T17:08:27;42.80;;;22.90;;
55172;SDS011;41061;52.822;6.860;2023-02-15T17:13:28;44.70;;;24.00;;
55172;SDS011;41061;52.822;6.860;2023-02-15T17:18:24;44.17;;;24.85;;
55172;SDS011;41061;52.822;6.860;2023-02-15T17:20:54;44.67;;;25.00;;
55172;SDS011;41061;52.822;6.860;2023-02-15T17:23:33;43.60;;;24.13;;
55172;SDS011;41061;52.822;6.860;2023-02-15T17:26:01;47.80;;;24.85;;
55172;SDS011;41061;52.822;6.860;2023-02-15T17:28:28;47.42;;;23.92;;
55172;SDS011;41061;52.822;6.860;2023-02-15T17:30:55;47.40;;;25.00;;
55172;SDS011;41061;52.822;6.860;2023-02-15T17:33:23;48.50;;;24.73;;
55172;SDS011;41061;52.822;6.860;2023-02-15T17:38:34;46.83;;;25.58;;
55172;SDS011;41061;52.822;6.860;2023-02-15T17:41:01;46.50;;;25.42;;
55172;SDS011;41061;52.822;6.860;2023-02-15T17:43:27;43.17;;;24.52;;
55172;SDS011;41061;52.822;6.860;2023-02-15T17:45:53;49.70;;;26.83;;
55172;SDS011;41061;52.822;6.860;2023-02-15T17:50:46;47.28;;;25.40;;
55172;SDS011;41061;52.822;6.860;2023-02-15T17:53:13;43.78;;;25.83;;
55172;SDS011;41061;52.822;6.860;2023-02-15T17:55:40;43.80;;;25.33;;
55172;SDS011;41061;52.822;6.860;2023-02-15T17:58:08;45.80;;;25.70;;
55172;SDS011;41061;52.822;6.860;2023-02-15T18:00:42;47.80;;;25.92;;
55172;SDS011;41061;52.822;6.860;2023-02-15T18:03:49;45.10;;;26.42;;
55172;SDS011;41061;52.822;6.860;2023-02-15T18:06:33;53.13;;;27.08;;
55172;SDS011;41061;52.822;6.860;2023-02-15T18:09:19;42.65;;;24.83;;
55172;SDS011;41061;52.822;6.860;2023-02-15T18:12:26;44.97;;;26.23;;
55172;SDS011;41061;52.822;6.860;2023-02-15T18:14:52;44.83;;;25.45;;
55172;SDS011;41061;52.822;6.860;2023-02-15T18:17:18;46.28;;;26.80;;
55172;SDS011;41061;52.822;6.860;2023-02-15T18:19:45;46.05;;;26.40;;
55172;SDS011;41061;52.822;6.860;2023-02-15T18:22:12;45.60;;;25.83;;
55172;SDS011;41061;52.822;6.860;2023-02-15T18:24:39;43.92;;;26.08;;
55172;SDS011;41061;52.822;6.860;2023-02-15T18:27:05;44.40;;;27.15;;
55172;SDS011;41061;52.822;6.860;2023-02-15T18:29:31;46.58;;;26.23;;